createdAt,value
2022-10-25T00:02:21.799Z,12.95
2022-10-25T00:04:50.281Z,13.18
2022-10-25T00:07:18.455Z,12.85
2022-10-25T00:09:46.589Z,12.57
2022-10-25T00:12:14.933Z,12.43
2022-10-25T00:14:42.978Z,12.30
2022-10-25T00:17:11.169Z,12.48
2022-10-25T00:19:39.491Z,13.20
2022-10-25T00:22:07.586Z,12.80
2022-10-25T00:24:35.757Z,13.23
2022-10-25T00:27:04.011Z,11.95
2022-10-25T00:29:32.328Z,13.90
2022-10-25T00:32:00.501Z,12.77
2022-10-25T00:34:28.833Z,14.30
2022-10-25T00:36:56.891Z,12.45
2022-10-25T00:39:25.023Z,14.10
2022-10-25T00:41:53.270Z,14.02
2022-10-25T00:44:39.669Z,13.35
2022-10-25T00:47:23.336Z,13.68
2022-10-25T00:50:03.683Z,13.10
2022-10-25T00:52:36.419Z,12.77
2022-10-25T00:55:08.071Z,13.82
2022-10-25T00:57:46.447Z,12.68
2022-10-25T01:00:15.635Z,12.25
2022-10-25T01:02:43.882Z,12.07
2022-10-25T01:05:12.767Z,11.75
2022-10-25T01:07:40.936Z,12.57
2022-10-25T01:10:09.301Z,12.45
2022-10-25T01:12:37.554Z,11.48
2022-10-25T01:15:06.573Z,9.35
2022-10-25T01:17:53.145Z,10.07
2022-10-25T01:20:52.112Z,9.23
2022-10-25T01:23:47.544Z,9.50
2022-10-25T01:26:46.345Z,9.70
2022-10-25T01:29:23.363Z,10.55
2022-10-25T01:31:54.708Z,11.05
2022-10-25T01:34:32.022Z,11.10
2022-10-25T01:37:12.838Z,9.68
2022-10-25T01:39:57.968Z,10.65
2022-10-25T01:42:50.815Z,9.55
2022-10-25T01:45:24.875Z,10.15
2022-10-25T01:48:13.617Z,10.05
2022-10-25T01:50:45.586Z,9.90
2022-10-25T01:53:13.840Z,10.13
2022-10-25T01:55:54.818Z,9.52
2022-10-25T01:58:38.145Z,11.45
2022-10-25T02:01:12.285Z,11.00
2022-10-25T02:03:47.183Z,11.45
2022-10-25T02:06:36.622Z,10.05
2022-10-25T02:09:14.854Z,13.50
2022-10-25T02:11:42.977Z,12.25
2022-10-25T02:14:38.144Z,12.65
2022-10-25T02:17:20.279Z,12.70
2022-10-25T02:19:52.714Z,12.60
2022-10-25T02:22:24.582Z,12.77
2022-10-25T02:24:56.734Z,12.57
2022-10-25T02:29:55.333Z,12.73
2022-10-25T02:32:23.717Z,12.38
2022-10-25T02:34:52.162Z,14.77
2022-10-25T02:37:20.472Z,12.45
2022-10-25T02:39:49.695Z,12.55
2022-10-25T02:42:18.052Z,13.73
2022-10-25T02:44:46.328Z,13.15
2022-10-25T02:47:14.343Z,12.48
2022-10-25T02:49:42.587Z,13.75
2022-10-25T02:52:10.631Z,12.70
2022-10-25T02:54:38.865Z,13.27
2022-10-25T02:57:07.105Z,14.10
2022-10-25T02:59:35.335Z,14.43
2022-10-25T03:02:03.674Z,14.77
2022-10-25T03:04:31.850Z,14.30
2022-10-25T03:07:00.440Z,13.38
2022-10-25T03:09:28.581Z,13.65
2022-10-25T03:11:56.559Z,14.05
2022-10-25T03:14:24.833Z,13.05
2022-10-25T03:16:52.961Z,12.68
2022-10-25T03:19:21.104Z,14.63
2022-10-25T03:21:49.347Z,12.43
2022-10-25T03:24:17.426Z,12.40
2022-10-25T03:26:45.514Z,13.88
2022-10-25T03:29:13.643Z,13.88
2022-10-25T03:31:41.738Z,13.27
2022-10-25T03:34:09.724Z,13.77
2022-10-25T03:36:37.950Z,13.98
2022-10-25T03:39:06.146Z,13.80
2022-10-25T03:41:34.341Z,13.10
2022-10-25T03:44:02.367Z,12.95
2022-10-25T03:46:30.601Z,12.93
2022-10-25T03:48:59.063Z,13.65
2022-10-25T03:51:27.194Z,11.70
2022-10-25T03:53:55.379Z,11.13
2022-10-25T03:56:23.863Z,12.40
2022-10-25T03:58:52.074Z,12.63
2022-10-25T04:01:20.441Z,11.27
2022-10-25T04:03:48.651Z,11.45
2022-10-25T04:06:16.873Z,11.93
2022-10-25T04:08:44.980Z,12.52
2022-10-25T04:11:13.104Z,13.23
2022-10-25T04:13:41.224Z,13.70
2022-10-25T04:16:10.174Z,13.82
2022-10-25T04:18:38.257Z,12.27
2022-10-25T04:21:06.598Z,12.68
2022-10-25T04:23:34.744Z,13.50
2022-10-25T04:26:02.790Z,12.93
2022-10-25T04:28:31.019Z,12.13
2022-10-25T04:30:59.183Z,13.07
2022-10-25T04:33:27.355Z,12.90
2022-10-25T04:37:10.109Z,12.18
2022-10-25T04:39:38.359Z,11.93
2022-10-25T04:42:06.656Z,13.77
2022-10-25T04:44:34.772Z,13.57
2022-10-25T04:47:02.952Z,13.30
2022-10-25T04:49:31.052Z,13.88
2022-10-25T04:51:59.310Z,12.75
2022-10-25T04:54:27.749Z,13.38
2022-10-25T04:56:55.811Z,12.50
2022-10-25T04:59:24.007Z,12.50
2022-10-25T05:04:25.111Z,11.80
2022-10-25T05:06:53.246Z,12.52
2022-10-25T05:09:21.504Z,14.85
2022-10-25T05:11:49.502Z,13.68
2022-10-25T05:14:17.750Z,14.88
2022-10-25T05:16:45.764Z,13.82
2022-10-25T05:19:13.894Z,14.15
2022-10-25T05:21:42.083Z,14.98
2022-10-25T05:24:10.190Z,15.38
2022-10-25T05:26:38.364Z,13.07
2022-10-25T05:29:10.172Z,13.63
2022-10-25T05:34:10.240Z,24.85
2022-10-25T05:36:38.726Z,45.50
2022-10-25T05:39:06.927Z,55.40
2022-10-25T05:41:37.194Z,22.40
2022-10-25T05:44:06.586Z,15.75
2022-10-25T05:46:34.765Z,13.35
2022-10-25T05:49:02.967Z,14.15
2022-10-25T05:51:35.853Z,18.02
2022-10-25T05:56:49.834Z,63.15
2022-10-25T05:59:18.031Z,20.83
2022-10-25T06:01:47.446Z,16.40
2022-10-25T06:04:16.873Z,14.57
2022-10-25T06:06:47.248Z,18.85
2022-10-25T06:09:15.470Z,18.67
2022-10-25T06:11:43.699Z,17.30
2022-10-25T06:14:12.073Z,17.08
2022-10-25T06:16:40.325Z,17.60
2022-10-25T06:19:09.591Z,18.23
2022-10-25T06:21:38.064Z,15.13
2022-10-25T06:24:06.671Z,14.52
2022-10-25T06:26:34.898Z,202.75
2022-10-25T06:29:04.653Z,76.82
2022-10-25T06:31:33.592Z,30.27
2022-10-25T06:34:02.997Z,28.63
2022-10-25T06:36:32.059Z,48.03
2022-10-25T06:39:05.406Z,28.42
2022-10-25T06:41:35.961Z,27.65
2022-10-25T06:44:06.319Z,22.95
2022-10-25T06:47:04.336Z,20.27
2022-10-25T06:49:27.072Z,22.92
2022-10-25T06:51:55.126Z,17.60
2022-10-25T06:54:23.575Z,23.35
2022-10-25T06:56:51.792Z,30.55
2022-10-25T06:59:19.798Z,22.70
2022-10-25T07:01:48.137Z,18.75
2022-10-25T07:04:16.886Z,17.38
2022-10-25T07:06:44.940Z,15.55
2022-10-25T07:09:13.284Z,17.00
2022-10-25T07:11:41.833Z,42.05
2022-10-25T07:14:10.190Z,41.00
2022-10-25T07:16:38.437Z,33.88
2022-10-25T07:19:06.622Z,28.42
2022-10-25T07:21:34.860Z,19.90
2022-10-25T07:24:03.606Z,16.92
2022-10-25T07:26:34.557Z,16.13
2022-10-25T07:29:04.426Z,14.90
2022-10-25T07:31:35.531Z,16.98
2022-10-25T07:34:05.831Z,17.10
2022-10-25T07:36:34.534Z,16.70
2022-10-25T07:39:02.562Z,16.13
2022-10-25T07:41:30.861Z,16.67
2022-10-25T07:43:59.194Z,17.70
2022-10-25T07:46:27.536Z,19.48
2022-10-25T07:48:55.896Z,23.65
2022-10-25T07:51:24.064Z,27.65
2022-10-25T07:53:54.004Z,25.13
2022-10-25T07:56:23.699Z,24.50
2022-10-25T07:58:55.434Z,22.55
2022-10-25T08:01:26.499Z,21.45
2022-10-25T08:03:55.993Z,19.60
2022-10-25T08:06:25.594Z,17.35
2022-10-25T08:08:54.221Z,16.35
2022-10-25T08:11:22.379Z,18.05
2022-10-25T08:13:51.122Z,18.30
2022-10-25T08:16:19.510Z,16.77
2022-10-25T08:18:47.829Z,16.52
2022-10-25T08:21:16.147Z,15.80
2022-10-25T08:23:44.559Z,14.02
2022-10-25T08:26:13.057Z,11.40
2022-10-25T08:28:41.463Z,11.80
2022-10-25T08:31:10.009Z,10.75
2022-10-25T08:33:38.666Z,11.15
2022-10-25T08:36:07.559Z,12.18
2022-10-25T08:38:39.063Z,12.70
2022-10-25T08:42:00.112Z,12.73
2022-10-25T08:44:50.215Z,13.57
2022-10-25T08:47:29.859Z,12.10
2022-10-25T08:50:17.180Z,12.18
2022-10-25T08:52:52.774Z,12.40
2022-10-25T08:55:29.223Z,11.95
2022-10-25T08:57:58.067Z,11.88
2022-10-25T09:00:30.810Z,11.32
2022-10-25T09:03:01.351Z,10.73
2022-10-25T09:05:32.718Z,13.48
2022-10-25T09:08:08.177Z,13.05
2022-10-25T09:10:46.027Z,13.48
2022-10-25T09:13:53.714Z,12.63
2022-10-25T09:16:34.013Z,9.10
2022-10-25T09:19:10.074Z,10.98
2022-10-25T09:21:48.871Z,10.70
2022-10-25T09:24:43.095Z,12.68
2022-10-25T09:27:41.756Z,14.70
2022-10-25T09:30:14.661Z,10.82
2022-10-25T09:32:53.087Z,15.82
2022-10-25T09:35:49.692Z,11.23
2022-10-25T09:38:28.607Z,8.57
2022-10-25T09:41:12.378Z,9.48
2022-10-25T09:43:55.601Z,8.57
2022-10-25T09:46:37.544Z,9.48
2022-10-25T09:49:14.799Z,8.65
2022-10-25T09:51:51.816Z,8.57
2022-10-25T09:54:48.409Z,9.65
2022-10-25T09:57:16.947Z,9.95
2022-10-25T09:59:51.281Z,10.18
2022-10-25T10:02:29.695Z,11.10
2022-10-25T10:04:58.011Z,8.98
2022-10-25T10:07:32.405Z,9.65
2022-10-25T10:10:04.561Z,9.30
2022-10-25T10:15:26.447Z,8.15
2022-10-25T10:18:24.365Z,8.48
2022-10-25T10:21:06.028Z,7.32
2022-10-25T10:23:37.586Z,8.45
2022-10-25T10:26:56.561Z,7.80
2022-10-25T10:29:31.897Z,7.53
2022-10-25T10:32:22.433Z,8.60
2022-10-25T10:34:58.354Z,7.90
2022-10-25T10:37:31.243Z,8.43
2022-10-25T10:40:09.536Z,11.57
2022-10-25T10:42:39.682Z,8.15
2022-10-25T10:45:08.349Z,7.95
2022-10-25T10:47:52.161Z,7.28
2022-10-25T10:50:23.596Z,7.22
2022-10-25T10:53:02.913Z,7.82
2022-10-25T10:55:31.415Z,7.97
2022-10-25T10:58:18.451Z,7.53
2022-10-25T11:00:53.794Z,7.38
2022-10-25T11:04:00.205Z,8.35
2022-10-25T11:06:36.125Z,6.95
2022-10-25T11:09:22.641Z,7.10
2022-10-25T11:12:13.844Z,8.43
2022-10-25T11:14:42.291Z,7.95
2022-10-25T11:17:19.903Z,8.00
2022-10-25T11:20:21.859Z,8.23
2022-10-25T11:23:31.953Z,6.95
2022-10-25T11:26:25.143Z,7.65
2022-10-25T11:29:15.869Z,6.70
2022-10-25T11:32:51.956Z,7.28
2022-10-25T11:35:32.146Z,6.63
2022-10-25T11:38:16.020Z,7.35
2022-10-25T11:41:03.236Z,8.60
2022-10-25T11:44:09.207Z,7.30
2022-10-25T11:46:52.570Z,8.77
2022-10-25T11:49:29.623Z,8.68
2022-10-25T11:52:33.328Z,10.18
2022-10-25T11:55:20.109Z,8.43
2022-10-25T11:58:14.193Z,8.35
2022-10-25T12:01:05.318Z,8.65
2022-10-25T12:04:10.830Z,7.97
2022-10-25T12:07:00.043Z,8.60
2022-10-25T12:09:46.982Z,8.73
2022-10-25T12:12:20.214Z,8.93
2022-10-25T12:14:59.552Z,8.30
2022-10-25T12:17:34.799Z,7.80
2022-10-25T12:20:12.142Z,8.15
2022-10-25T12:22:47.873Z,7.35
2022-10-25T12:25:25.748Z,7.00
2022-10-25T12:28:13.970Z,7.60
2022-10-25T12:30:44.539Z,7.38
2022-10-25T12:33:40.362Z,7.82
2022-10-25T12:36:20.397Z,7.78
2022-10-25T12:38:48.644Z,8.60
2022-10-25T12:41:20.952Z,7.75
2022-10-25T12:44:27.961Z,8.02
2022-10-25T12:47:13.271Z,7.55
2022-10-25T12:50:09.592Z,8.32
2022-10-25T12:53:01.674Z,7.97
2022-10-25T12:55:33.323Z,12.20
2022-10-25T12:58:09.548Z,10.02
2022-10-25T13:01:22.300Z,10.80
2022-10-25T13:04:23.156Z,8.77
2022-10-25T13:06:52.602Z,8.98
2022-10-25T13:09:26.939Z,8.77
2022-10-25T13:12:03.476Z,9.27
2022-10-25T13:14:36.577Z,7.97
2022-10-25T13:17:20.087Z,7.88
2022-10-25T13:19:54.593Z,8.70
2022-10-25T13:22:31.537Z,9.30
2022-10-25T13:25:02.989Z,8.10
2022-10-25T13:27:33.517Z,9.30
2022-10-25T13:30:23.552Z,9.98
2022-10-25T13:33:19.375Z,10.63
2022-10-25T13:35:51.110Z,8.73
2022-10-25T13:38:26.325Z,8.52
2022-10-25T13:41:14.226Z,22.90
2022-10-25T13:44:03.043Z,18.30
2022-10-25T13:46:35.011Z,8.23
2022-10-25T13:49:32.790Z,10.13
2022-10-25T13:52:03.568Z,9.13
2022-10-25T13:54:56.901Z,8.77
2022-10-25T13:57:54.358Z,9.13
2022-10-25T14:00:41.754Z,9.63
2022-10-25T14:03:10.112Z,8.57
2022-10-25T14:05:54.980Z,8.00
2022-10-25T14:08:45.471Z,8.45
2022-10-25T14:11:48.394Z,8.00
2022-10-25T14:14:29.428Z,7.25
2022-10-25T14:17:25.111Z,8.60
2022-10-25T14:20:03.015Z,9.50
2022-10-25T14:23:02.963Z,7.95
2022-10-25T14:25:40.036Z,7.00
2022-10-25T14:28:27.373Z,8.38
2022-10-25T14:31:06.352Z,7.70
2022-10-25T14:33:49.670Z,8.70
2022-10-25T14:36:30.407Z,9.13
2022-10-25T14:39:17.619Z,8.40
2022-10-25T14:42:00.578Z,8.63
2022-10-25T14:44:33.379Z,11.52
2022-10-25T14:47:01.813Z,9.30
2022-10-25T14:49:30.473Z,14.90
2022-10-25T14:52:03.697Z,8.90
2022-10-25T14:54:35.320Z,16.27
2022-10-25T14:57:09.018Z,9.35
2022-10-25T14:59:43.564Z,10.65
2022-10-25T15:02:24.096Z,10.65
2022-10-25T15:04:55.351Z,8.07
2022-10-25T15:07:28.908Z,7.75
2022-10-25T15:10:01.699Z,7.45
2022-10-25T15:12:36.028Z,7.70
2022-10-25T15:15:33.832Z,10.38
2022-10-25T15:18:02.512Z,10.02
2022-10-25T15:20:33.804Z,9.50
2022-10-25T15:23:05.767Z,7.97
2022-10-25T15:25:39.223Z,8.43
2022-10-25T15:28:18.745Z,9.57
2022-10-25T15:31:05.396Z,7.43
2022-10-25T15:33:35.276Z,7.18
2022-10-25T15:36:20.638Z,9.00
2022-10-25T15:39:07.074Z,7.47
2022-10-25T15:41:39.180Z,5.95
2022-10-25T15:44:10.699Z,6.10
2022-10-25T15:46:39.386Z,5.90
2022-10-25T15:49:12.143Z,6.28
2022-10-25T15:51:43.524Z,5.85
2022-10-25T15:54:23.358Z,5.72
2022-10-25T15:56:52.227Z,4.93
2022-10-25T15:59:20.638Z,6.85
2022-10-25T16:01:52.654Z,4.38
2022-10-25T16:04:23.969Z,5.65
2022-10-25T16:06:52.453Z,5.75
2022-10-25T16:09:20.626Z,7.13
2022-10-25T16:11:55.452Z,5.55
2022-10-25T16:14:27.485Z,5.60
2022-10-25T16:16:59.196Z,4.93
2022-10-25T16:19:27.568Z,6.03
2022-10-25T16:21:58.009Z,6.13
2022-10-25T16:24:29.502Z,5.97
2022-10-25T16:26:58.135Z,5.63
2022-10-25T16:29:32.960Z,8.05
2022-10-25T16:32:04.633Z,5.85
2022-10-25T16:37:12.086Z,6.70
2022-10-25T16:39:40.620Z,6.97
2022-10-25T16:42:34.287Z,7.97
2022-10-25T16:45:13.943Z,5.88
2022-10-25T16:47:43.838Z,6.72
2022-10-25T16:50:22.638Z,5.50
2022-10-25T16:52:58.777Z,6.30
2022-10-25T16:55:28.520Z,7.07
2022-10-25T16:57:57.633Z,7.18
2022-10-25T17:00:27.363Z,7.82
2022-10-25T17:02:55.815Z,6.10
2022-10-25T17:05:26.869Z,7.82
2022-10-25T17:07:57.853Z,7.53
2022-10-25T17:10:26.341Z,7.75
2022-10-25T17:12:56.702Z,6.93
2022-10-25T17:15:25.172Z,7.25
2022-10-25T17:17:53.230Z,8.80
2022-10-25T17:20:21.571Z,7.85
2022-10-25T17:22:49.791Z,5.95
2022-10-25T17:25:18.336Z,6.95
2022-10-25T17:27:50.691Z,6.22
2022-10-25T17:30:19.531Z,6.70
2022-10-25T17:32:47.967Z,10.52
2022-10-25T17:35:16.293Z,7.47
2022-10-25T17:37:44.587Z,6.95
2022-10-25T17:40:13.487Z,7.25
2022-10-25T17:42:41.821Z,5.43
2022-10-25T17:45:10.630Z,7.68
2022-10-25T17:47:39.178Z,6.72
2022-10-25T17:50:07.936Z,7.22
2022-10-25T17:52:36.193Z,8.63
2022-10-25T17:55:04.939Z,5.28
2022-10-25T17:57:34.468Z,11.85
2022-10-25T18:00:02.858Z,40.67
2022-10-25T18:02:40.396Z,52.90
2022-10-25T18:05:19.838Z,95.88
2022-10-25T18:07:49.303Z,253.07
2022-10-25T18:10:17.847Z,185.75
2022-10-25T18:12:46.364Z,114.00
2022-10-25T18:15:14.961Z,228.98
2022-10-25T18:17:43.254Z,38.50
2022-10-25T18:20:11.802Z,15.23
2022-10-25T18:22:40.114Z,7.68
2022-10-25T18:25:08.690Z,6.18
2022-10-25T18:27:36.936Z,6.40
2022-10-25T18:30:05.817Z,7.13
2022-10-25T18:32:36.238Z,7.28
2022-10-25T18:35:04.816Z,8.88
2022-10-25T18:37:33.200Z,9.30
2022-10-25T18:40:01.414Z,6.47
2022-10-25T18:42:29.633Z,8.00
2022-10-25T18:44:57.942Z,9.35
2022-10-25T18:47:26.024Z,10.43
2022-10-25T18:49:54.196Z,10.45
2022-10-25T18:52:22.481Z,9.32
2022-10-25T18:54:50.877Z,7.70
2022-10-25T18:57:19.278Z,7.40
2022-10-25T18:59:47.360Z,12.93
2022-10-25T19:02:15.682Z,7.78
2022-10-25T19:04:44.216Z,7.22
2022-10-25T19:07:12.221Z,8.70
2022-10-25T19:09:40.415Z,10.23
2022-10-25T19:12:08.851Z,9.43
2022-10-25T19:14:36.895Z,9.27
2022-10-25T19:17:05.215Z,10.55
2022-10-25T19:19:33.545Z,7.93
2022-10-25T19:22:01.701Z,9.20
2022-10-25T19:24:29.921Z,7.65
2022-10-25T19:26:58.309Z,6.43
2022-10-25T19:29:26.619Z,7.53
2022-10-25T19:31:54.977Z,7.78
2022-10-25T19:34:23.072Z,14.82
2022-10-25T19:36:51.405Z,21.25
2022-10-25T19:39:19.595Z,15.15
2022-10-25T19:41:47.783Z,13.90
2022-10-25T19:44:16.047Z,17.73
2022-10-25T19:46:44.229Z,41.00
2022-10-25T19:49:12.736Z,23.05
2022-10-25T19:51:41.042Z,24.33
2022-10-25T19:54:09.904Z,12.25
2022-10-25T19:56:38.572Z,11.77
2022-10-25T19:59:12.452Z,12.80
2022-10-25T20:01:41.023Z,7.57
2022-10-25T20:04:09.189Z,6.55
2022-10-25T20:06:37.565Z,6.25
2022-10-25T20:09:06.052Z,5.95
2022-10-25T20:11:34.597Z,7.00
2022-10-25T20:14:03.862Z,5.65
2022-10-25T20:16:32.716Z,6.18
2022-10-25T20:19:02.254Z,7.15
2022-10-25T20:21:33.636Z,20.58
2022-10-25T20:24:05.184Z,8.43
2022-10-25T20:26:36.978Z,5.75
2022-10-25T20:29:08.084Z,6.50
2022-10-25T20:31:36.374Z,7.30
2022-10-25T20:34:05.571Z,6.68
2022-10-25T20:36:33.992Z,7.15
2022-10-25T20:39:04.900Z,6.05
2022-10-25T20:41:36.083Z,6.28
2022-10-25T20:44:04.816Z,6.97
2022-10-25T20:46:34.321Z,5.43
2022-10-25T20:49:04.286Z,5.37
2022-10-25T20:51:32.901Z,5.63
2022-10-25T20:54:01.100Z,5.43
2022-10-25T20:56:29.236Z,6.25
2022-10-25T20:58:57.596Z,5.82
2022-10-25T21:01:25.952Z,8.07
2022-10-25T21:03:54.319Z,6.88
2022-10-25T21:06:22.744Z,5.70
2022-10-25T21:08:51.091Z,6.00
2022-10-25T21:11:19.638Z,6.38
2022-10-25T21:13:47.861Z,6.00
2022-10-25T21:16:17.782Z,4.60
2022-10-25T21:18:46.324Z,5.60
2022-10-25T21:21:20.662Z,6.45
2022-10-25T21:23:49.434Z,7.28
2022-10-25T21:26:17.652Z,6.07
2022-10-25T21:28:45.751Z,5.00
2022-10-25T21:31:15.869Z,4.57
2022-10-25T21:33:50.127Z,4.80
2022-10-25T21:36:20.783Z,4.32
2022-10-25T21:38:49.343Z,5.03
2022-10-25T21:41:23.398Z,5.25
2022-10-25T21:43:51.828Z,4.90
2022-10-25T21:46:22.777Z,5.38
2022-10-25T21:48:51.486Z,6.72
2022-10-25T21:51:21.082Z,5.47
2022-10-25T21:53:49.719Z,5.88
2022-10-25T21:56:20.600Z,5.85
2022-10-25T21:58:49.683Z,6.53
2022-10-25T22:01:24.092Z,6.07
2022-10-25T22:03:53.178Z,4.55
2022-10-25T22:06:23.370Z,5.07
2022-10-25T22:08:53.459Z,5.03
2022-10-25T22:11:27.580Z,4.20
2022-10-25T22:13:58.600Z,4.18
2022-10-25T22:16:27.972Z,4.45
2022-10-25T22:19:06.584Z,4.95
2022-10-25T22:21:39.239Z,4.18
2022-10-25T22:24:09.695Z,4.20
2022-10-25T22:26:40.878Z,5.28
2022-10-25T22:29:12.070Z,6.00
2022-10-25T22:31:40.763Z,6.30
2022-10-25T22:34:09.953Z,5.05
2022-10-25T22:36:41.133Z,5.85
2022-10-25T22:39:09.852Z,5.23
2022-10-25T22:41:38.180Z,4.70
2022-10-25T22:44:06.780Z,4.80
2022-10-25T22:46:36.589Z,4.40
2022-10-25T22:49:09.816Z,5.80
2022-10-25T22:51:39.056Z,5.72
2022-10-25T22:54:07.918Z,5.95
2022-10-25T22:56:36.539Z,5.65
2022-10-25T22:59:06.537Z,9.57
2022-10-25T23:01:36.774Z,8.52
2022-10-25T23:04:07.684Z,40.83
2022-10-25T23:06:39.012Z,17.60
2022-10-25T23:09:09.561Z,30.10
2022-10-25T23:11:39.449Z,26.00
2022-10-25T23:14:08.516Z,58.03
2022-10-25T23:16:38.224Z,19.90
2022-10-25T23:19:06.354Z,16.27
2022-10-25T23:21:34.600Z,23.15
2022-10-25T23:24:03.181Z,39.60
2022-10-25T23:26:33.495Z,24.60
2022-10-25T23:29:02.077Z,7.97
2022-10-25T23:31:31.157Z,7.47
2022-10-25T23:34:00.861Z,4.85
2022-10-25T23:36:31.961Z,4.72
2022-10-25T23:39:00.304Z,7.00
2022-10-25T23:41:28.565Z,6.55
2022-10-25T23:43:57.032Z,5.85
2022-10-25T23:46:25.305Z,6.20
2022-10-25T23:48:53.483Z,5.63
2022-10-25T23:51:21.759Z,6.20
2022-10-25T23:53:49.879Z,6.78
2022-10-25T23:56:18.268Z,7.32
2022-10-25T23:58:46.548Z,5.68
